地図

経路データ

SID SEASON NUMBER BASIN SUBBASIN NAME ISO_TIME NATURE LAT LON WMO_WIND WMO_PRES WMO_AGENCY TRACK_TYPE DIST2LAND LANDFALL IFLAG USA_AGENCY USA_ATCF_ID USA_LAT USA_LON USA_RECORD USA_STATUS USA_WIND USA_PRES USA_SSHS USA_R34_NE USA_R34_SE USA_R34_SW USA_R34_NW USA_R50_NE USA_R50_SE USA_R50_SW USA_R50_NW USA_R64_NE USA_R64_SE USA_R64_SW USA_R64_NW USA_POCI USA_ROCI USA_RMW USA_EYE TOKYO_LAT TOKYO_LON TOKYO_GRADE TOKYO_WIND TOKYO_PRES TOKYO_R50_DIR TOKYO_R50_LONG TOKYO_R50_SHORT TOKYO_R30_DIR TOKYO_R30_LONG TOKYO_R30_SHORT TOKYO_LAND CMA_LAT CMA_LON CMA_CAT CMA_WIND CMA_PRES HKO_LAT HKO_LON HKO_CAT HKO_WIND HKO_PRES NEWDELHI_LAT NEWDELHI_LON NEWDELHI_GRADE NEWDELHI_WIND NEWDELHI_PRES NEWDELHI_CI NEWDELHI_DP NEWDELHI_POCI REUNION_LAT REUNION_LON REUNION_TYPE REUNION_WIND REUNION_PRES REUNION_TNUM REUNION_CI REUNION_RMW REUNION_R34_NE REUNION_R34_SE REUNION_R34_SW REUNION_R34_NW REUNION_R50_NE REUNION_R50_SE REUNION_R50_SW REUNION_R50_NW REUNION_R64_NE REUNION_R64_SE REUNION_R64_SW REUNION_R64_NW BOM_LAT BOM_LON BOM_TYPE BOM_WIND BOM_PRES BOM_TNUM BOM_CI BOM_RMW BOM_R34_NE BOM_R34_SE BOM_R34_SW BOM_R34_NW BOM_R50_NE BOM_R50_SE BOM_R50_SW BOM_R50_NW BOM_R64_NE BOM_R64_SE BOM_R64_SW BOM_R64_NW BOM_ROCI BOM_POCI BOM_EYE BOM_POS_METHOD BOM_PRES_METHOD NADI_LAT NADI_LON NADI_CAT NADI_WIND NADI_PRES WELLINGTON_LAT WELLINGTON_LON WELLINGTON_WIND WELLINGTON_PRES DS824_LAT DS824_LON DS824_STAGE DS824_WIND DS824_PRES TD9636_LAT TD9636_LON TD9636_STAGE TD9636_WIND TD9636_PRES TD9635_LAT TD9635_LON TD9635_WIND TD9635_PRES TD9635_ROCI NEUMANN_LAT NEUMANN_LON NEUMANN_CLASS NEUMANN_WIND NEUMANN_PRES MLC_LAT MLC_LON MLC_CLASS MLC_WIND MLC_PRES USA_GUST BOM_GUST BOM_GUST_PER REUNION_GUST REUNION_GUST_PER USA_SEAHGT USA_SEARAD_NE USA_SEARAD_SE USA_SEARAD_SW USA_SEARAD_NW STORM_SPEED STORM_DIR
1981317N31286 1981 106 NA NA NOT_NAMED 1981-11-12 12:00:00 SS 31.0000 -74.0000 45 1004 hurdat_atl main 473 468 O_____________ hurdat_atl AL221981 31.0000 -74.0000 SS 45 1004 -2 9 63
1981317N31286 1981 106 NA NA NOT_NAMED 1981-11-12 15:00:00 SS 31.2003 -73.5429 main 479 476 P_____________ AL221981 31.2003 -73.5429 SS 45 1003 -2 9 63
1981317N31286 1981 106 NA NA NOT_NAMED 1981-11-12 18:00:00 SS 31.4000 -73.1000 45 1003 hurdat_atl main 485 482 O_____________ hurdat_atl AL221981 31.4000 -73.1000 SS 45 1003 -2 8 61
1981317N31286 1981 106 NA NA NOT_NAMED 1981-11-12 21:00:00 SS 31.5999 -72.6848 main 494 492 P_____________ AL221981 31.5999 -72.6848 SS 47 1002 -2 8 60
1981317N31286 1981 106 NA NA NOT_NAMED 1981-11-13 00:00:00 SS 31.8000 -72.3000 50 1001 hurdat_atl main 506 506 O_____________ hurdat_atl AL221981 31.8000 -72.3000 SS 50 1001 -2 7 58
1981317N31286 1981 106 NA NA NOT_NAMED 1981-11-13 03:00:00 SS 31.9924 -71.9348 main 520 520 P_____________ AL221981 31.9924 -71.9348 SS 52 1000 -2 7 56
1981317N31286 1981 106 NA NA NOT_NAMED 1981-11-13 06:00:00 SS 32.2000 -71.6000 55 999 hurdat_atl main 528 528 O_____________ hurdat_atl AL221981 32.2000 -71.6000 SS 55 999 -2 7 51
1981317N31286 1981 106 NA NA NOT_NAMED 1981-11-13 09:00:00 SS 32.4425 -71.2775 main 539 531 P_____________ AL221981 32.4425 -71.2775 SS 55 998 -2 7 45
1981317N31286 1981 106 NA NA NOT_NAMED 1981-11-13 12:00:00 SS 32.7000 -71.0000 55 997 hurdat_atl main 538 538 O_____________ hurdat_atl AL221981 32.7000 -71.0000 SS 55 997 -2 7 41
1981317N31286 1981 106 NA NA NOT_NAMED 1981-11-13 15:00:00 SS 32.9500 -70.7550 main 538 532 P_____________ AL221981 32.9500 -70.7550 SS 55 996 -2 6 34
1981317N31286 1981 106 NA NA NOT_NAMED 1981-11-13 18:00:00 SS 33.2000 -70.6000 55 995 hurdat_atl main 533 521 O_____________ hurdat_atl AL221981 33.2000 -70.6000 SS 55 995 -2 5 19
1981317N31286 1981 106 NA NA NOT_NAMED 1981-11-13 21:00:00 SS 33.4424 -70.5549 main 521 504 P_____________ AL221981 33.4424 -70.5549 SS 57 994 -2 5 2
1981317N31286 1981 106 NA NA NOT_NAMED 1981-11-14 00:00:00 SS 33.7000 -70.6000 60 993 hurdat_atl main 504 480 O_____________ hurdat_atl AL221981 33.7000 -70.6000 SS 60 993 -2 6 349
1981317N31286 1981 106 NA NA NOT_NAMED 1981-11-14 03:00:00 SS 34.0000 -70.6775 main 480 458 P_____________ AL221981 34.0000 -70.6775 SS 60 992 -2 6 344
1981317N31286 1981 106 NA NA NOT_NAMED 1981-11-14 06:00:00 SS 34.3000 -70.8000 60 991 hurdat_atl main 458 441 O_____________ hurdat_atl AL221981 34.3000 -70.8000 SS 60 991 -2 6 338
1981317N31286 1981 106 NA NA NOT_NAMED 1981-11-14 09:00:00 SS 34.5575 -70.9426 main 437 413 P_____________ AL221981 34.5575 -70.9426 SS 60 990 -2 6 334
1981317N31286 1981 106 NA NA NOT_NAMED 1981-11-14 12:00:00 SS 34.8000 -71.1000 60 989 hurdat_atl main 413 398 O_____________ hurdat_atl AL221981 34.8000 -71.1000 SS 60 989 -2 6 333
1981317N31286 1981 106 NA NA NOT_NAMED 1981-11-14 15:00:00 SS 35.0499 -71.2427 main 398 374 P_____________ AL221981 35.0499 -71.2427 SS 60 987 -2 6 334
1981317N31286 1981 106 NA NA NOT_NAMED 1981-11-14 18:00:00 SS 35.3000 -71.4000 60 986 hurdat_atl main 374 353 O_____________ hurdat_atl AL221981 35.3000 -71.4000 SS 60 986 -2 6 328
1981317N31286 1981 106 NA NA NOT_NAMED 1981-11-14 21:00:00 SS 35.5351 -71.6149 main 353 332 P_____________ AL221981 35.5351 -71.6149 SS 60 985 -2 6 327
1981317N31286 1981 106 NA NA NOT_NAMED 1981-11-15 00:00:00 SS 35.8000 -71.8000 60 984 hurdat_atl main 332 323 O_____________ hurdat_atl AL221981 35.8000 -71.8000 SS 60 984 -2 6 340
1981317N31286 1981 106 NA NA NOT_NAMED 1981-11-15 03:00:00 SS 36.1349 -71.8876 main 324 324 P_____________ AL221981 36.1349 -71.8876 SS 60 982 -2 7 354
1981317N31286 1981 106 NA NA NOT_NAMED 1981-11-15 06:00:00 SS 36.5000 -71.9000 60 981 hurdat_atl main 331 327 O_____________ hurdat_atl AL221981 36.5000 -71.9000 SS 60 981 -2 7 2
1981317N31286 1981 106 NA NA NOT_NAMED 1981-11-15 09:00:00 SS 36.8499 -71.8874 main 327 314 P_____________ AL221981 36.8499 -71.8874 SS 60 980 -2 7 6
1981317N31286 1981 106 NA NA NOT_NAMED 1981-11-15 12:00:00 SS 37.2000 -71.8000 60 979 hurdat_atl main 314 309 O_____________ hurdat_atl AL221981 37.2000 -71.8000 SS 60 979 -2 7 16
1981317N31286 1981 106 NA NA NOT_NAMED 1981-11-15 15:00:00 SS 37.5500 -71.6300 main 315 307 P_____________ AL221981 37.5500 -71.6300 SS 60 978 -2 8 24
1981317N31286 1981 106 NA NA NOT_NAMED 1981-11-15 18:00:00 SS 37.9000 -71.4000 60 978 hurdat_atl main 307 301 O_____________ hurdat_atl AL221981 37.9000 -71.4000 SS 60 978 -2 8 27
1981317N31286 1981 106 NA NA NOT_NAMED 1981-11-15 21:00:00 SS 38.2499 -71.1721 main 304 284 P_____________ AL221981 38.2499 -71.1721 SS 60 978 -2 8 29
1981317N31286 1981 106 NA NA NOT_NAMED 1981-11-16 00:00:00 SS 38.6000 -70.9000 60 978 hurdat_atl main 284 266 O_____________ hurdat_atl AL221981 38.6000 -70.9000 SS 60 978 -2 8 34
1981317N31286 1981 106 NA NA NOT_NAMED 1981-11-16 03:00:00 SS 38.9500 -70.5649 main 262 248 P_____________ AL221981 38.9500 -70.5649 SS 57 978 -2 9 38
1981317N31286 1981 106 NA NA NOT_NAMED 1981-11-16 06:00:00 SS 39.3000 -70.2000 55 979 hurdat_atl main 248 219 O_____________ hurdat_atl AL221981 39.3000 -70.2000 SS 55 979 -2 9 38
1981317N31286 1981 106 NA NA NOT_NAMED 1981-11-16 09:00:00 SS 39.6497 -69.8718 main 221 193 P_____________ AL221981 39.6497 -69.8718 SS 55 980 -2 9 38
1981317N31286 1981 106 NA NA NOT_NAMED 1981-11-16 12:00:00 SS 40.0000 -69.5000 55 981 hurdat_atl main 193 169 O_____________ hurdat_atl AL221981 40.0000 -69.5000 SS 55 981 -2 9 42
1981317N31286 1981 106 NA NA NOT_NAMED 1981-11-16 15:00:00 SS 40.3496 -69.0518 main 172 161 P_____________ AL221981 40.3496 -69.0518 SS 55 982 -2 10 47
1981317N31286 1981 106 NA NA NOT_NAMED 1981-11-16 18:00:00 SS 40.7000 -68.5000 55 983 hurdat_atl main 167 166 O_____________ hurdat_atl AL221981 40.7000 -68.5000 SS 55 983 -2 11 56
1981317N31286 1981 106 NA NA NOT_NAMED 1981-11-16 21:00:00 SS 40.9902 -67.8204 main 198 198 P_____________ AL221981 40.9902 -67.8204 SS 52 984 -2 13 56
1981317N31286 1981 106 NA NA NOT_NAMED 1981-11-17 00:00:00 SS 41.4000 -67.1000 50 985 hurdat_atl main 242 179 O_____________ hurdat_atl AL221981 41.4000 -67.1000 SS 50 985 -2 15 44
1981317N31286 1981 106 NA NA NOT_NAMED 1981-11-17 03:00:00 SS 42.0703 -66.4343 main 165 67 P_____________ AL221981 42.0703 -66.4343 SS 47 987 -2 18 33
1981317N31286 1981 106 NA NA NOT_NAMED 1981-11-17 06:00:00 SS 42.9000 -65.8000 45 990 hurdat_atl main 67 O_____________ hurdat_atl AL221981 42.9000 -65.8000 SS 45 990 -2 19 29

IBTrACS Databaseについて

本データベースは、米国NOAAが公開する1842年以降の世界の熱帯低気圧のベストトラックデータアーカイブInternational Best Track Archive for Climate Stewardship (IBTrACS)を、ウェブで閲覧しやすい形式に変換したものです。

最終更新日:2021-12-06